createdAt,value
2018-12-07T00:01:44.512Z,8.40
2018-12-07T00:07:47.849Z,9.17
2018-12-07T00:13:51.184Z,8.00
2018-12-07T00:19:54.526Z,8.53
2018-12-07T00:25:57.860Z,7.53
2018-12-07T00:32:01.223Z,7.97
2018-12-07T00:38:05.229Z,9.10
2018-12-07T00:44:08.702Z,8.57
2018-12-07T00:50:12.025Z,7.83
2018-12-07T00:56:15.355Z,9.43
2018-12-07T01:02:18.681Z,9.07
2018-12-07T01:08:22.032Z,9.60
2018-12-07T01:14:25.367Z,8.97
2018-12-07T01:20:28.710Z,9.10
2018-12-07T01:26:48.746Z,8.40
2018-12-07T01:32:52.088Z,7.30
2018-12-07T01:38:55.417Z,7.80
2018-12-07T01:44:58.748Z,5.70
2018-12-07T01:51:02.098Z,6.60
2018-12-07T01:57:05.459Z,6.37
2018-12-07T02:03:08.802Z,6.37
2018-12-07T02:09:12.109Z,6.50
2018-12-07T02:15:15.468Z,6.60
2018-12-07T02:21:18.775Z,6.00
2018-12-07T02:27:22.098Z,6.00
2018-12-07T02:33:25.461Z,5.80
2018-12-07T02:39:28.790Z,5.97
2018-12-07T02:45:32.108Z,6.93
2018-12-07T02:51:35.448Z,6.57
2018-12-07T02:57:38.773Z,5.63
2018-12-07T03:03:42.100Z,5.43
2018-12-07T03:09:45.414Z,5.60
2018-12-07T03:15:48.747Z,5.60
2018-12-07T03:21:52.078Z,4.90
2018-12-07T03:27:55.399Z,4.83
2018-12-07T03:33:58.734Z,5.37
2018-12-07T03:40:02.129Z,4.80
2018-12-07T03:46:05.468Z,4.70
2018-12-07T03:52:08.786Z,5.80
2018-12-07T03:58:12.100Z,5.30
2018-12-07T04:04:15.417Z,5.40
2018-12-07T04:10:18.783Z,6.57
2018-12-07T04:16:22.095Z,5.23
2018-12-07T04:22:25.419Z,5.00
2018-12-07T04:28:28.738Z,5.37
2018-12-07T04:34:32.557Z,5.23
2018-12-07T04:40:35.872Z,5.43
2018-12-07T04:46:39.196Z,5.17
2018-12-07T04:52:42.513Z,3.73
2018-12-07T04:58:46.207Z,4.83
2018-12-07T05:04:49.669Z,4.23
2018-12-07T05:10:53.002Z,4.17
2018-12-07T05:16:56.313Z,3.93
2018-12-07T05:22:59.646Z,4.03
2018-12-07T05:29:02.972Z,4.30
2018-12-07T05:35:06.758Z,3.90
2018-12-07T05:41:10.097Z,3.50
2018-12-07T05:47:13.429Z,2.70
2018-12-07T05:53:18.200Z,2.30
2018-12-07T05:59:21.554Z,3.10
2018-12-07T06:05:24.866Z,2.20
2018-12-07T06:11:28.201Z,1.90
2018-12-07T06:17:31.511Z,2.60
2018-12-07T06:23:34.828Z,2.07
2018-12-07T06:29:38.167Z,2.70
2018-12-07T06:35:41.481Z,1.87
2018-12-07T06:41:44.801Z,2.10
2018-12-07T06:47:48.129Z,1.60
2018-12-07T06:53:51.441Z,2.10
2018-12-07T06:59:54.773Z,2.23
2018-12-07T07:05:58.081Z,2.37
2018-12-07T07:12:01.385Z,2.03
2018-12-07T07:18:04.743Z,2.33
2018-12-07T07:24:08.071Z,1.93
2018-12-07T07:30:14.323Z,2.97
2018-12-07T07:36:17.644Z,2.50
2018-12-07T07:42:20.986Z,3.23
2018-12-07T07:48:24.310Z,2.50
2018-12-07T07:54:27.630Z,3.07
2018-12-07T08:00:31.007Z,2.00
2018-12-07T08:06:34.326Z,2.37
2018-12-07T08:12:37.704Z,2.17
2018-12-07T08:18:43.599Z,1.90
2018-12-07T08:24:46.989Z,3.70
2018-12-07T08:30:50.305Z,7.70
2018-12-07T08:36:53.612Z,7.23
2018-12-07T08:42:57.018Z,1.93
2018-12-07T08:49:00.333Z,1.90
2018-12-07T08:55:03.816Z,2.47
2018-12-07T09:01:07.157Z,1.50
2018-12-07T09:07:10.485Z,1.40
2018-12-07T09:13:13.794Z,1.77
2018-12-07T09:19:17.125Z,1.47
2018-12-07T09:25:20.446Z,1.40
2018-12-07T09:31:23.759Z,1.63
2018-12-07T09:37:28.858Z,1.83
2018-12-07T09:43:32.443Z,1.40
2018-12-07T09:49:35.789Z,2.30
2018-12-07T09:55:39.139Z,0.90
2018-12-07T10:01:42.454Z,1.87
2018-12-07T10:07:45.799Z,1.20
2018-12-07T10:13:49.126Z,1.10
2018-12-07T10:19:52.432Z,2.03
2018-12-07T10:25:55.750Z,1.57
2018-12-07T10:31:59.129Z,1.63
2018-12-07T10:38:02.453Z,1.70
2018-12-07T10:44:05.790Z,2.20
2018-12-07T10:50:09.172Z,2.10
2018-12-07T10:56:12.571Z,1.67
2018-12-07T11:02:21.250Z,2.23
2018-12-07T11:08:30.034Z,2.93
2018-12-07T11:14:38.824Z,2.70
2018-12-07T11:27:23.955Z,2.67
2018-12-07T11:39:57.632Z,3.27
2018-12-07T11:46:01.003Z,2.83
2018-12-07T11:52:04.362Z,3.00
2018-12-07T11:58:07.700Z,2.67
2018-12-07T12:04:11.055Z,3.20
2018-12-07T12:10:14.475Z,2.60
2018-12-07T12:16:17.810Z,2.67
2018-12-07T12:22:21.144Z,1.90
2018-12-07T12:28:24.478Z,2.43
2018-12-07T12:34:27.817Z,3.67
2018-12-07T12:40:31.153Z,2.60
2018-12-07T12:52:42.794Z,2.70
2018-12-07T12:58:46.147Z,3.27
2018-12-07T13:04:49.496Z,2.83
2018-12-07T13:10:52.831Z,2.60
2018-12-07T13:16:56.191Z,2.50
2018-12-07T13:22:59.555Z,1.93
2018-12-07T13:29:02.989Z,2.73
2018-12-07T13:35:06.332Z,2.60
2018-12-07T13:41:09.671Z,2.37
2018-12-07T13:47:13.556Z,2.10
2018-12-07T13:53:17.491Z,2.10
2018-12-07T13:59:21.090Z,2.37
2018-12-07T14:05:32.059Z,2.40
2018-12-07T14:11:30.061Z,2.57
2018-12-07T14:17:33.540Z,2.23
2018-12-07T14:23:37.008Z,2.83
2018-12-07T14:29:40.638Z,1.97
2018-12-07T14:35:44.283Z,1.63
2018-12-07T14:41:47.953Z,1.67
2018-12-07T14:47:51.568Z,1.53
2018-12-07T14:53:55.032Z,1.63
2018-12-07T14:59:58.441Z,1.17
2018-12-07T15:06:02.032Z,1.70
2018-12-07T15:12:05.663Z,1.53
2018-12-07T15:18:09.168Z,1.60
2018-12-07T15:24:12.781Z,1.53
2018-12-07T15:30:16.192Z,2.33
2018-12-07T15:36:19.612Z,1.40
2018-12-07T15:42:23.012Z,2.40
2018-12-07T15:48:26.374Z,2.97
2018-12-07T15:54:29.799Z,2.80
2018-12-07T16:00:33.267Z,1.50
2018-12-07T16:06:37.556Z,4.30
2018-12-07T16:12:41.478Z,3.67
2018-12-07T16:18:44.912Z,1.83
2018-12-07T16:24:48.382Z,2.40
2018-12-07T16:30:51.770Z,3.40
2018-12-07T16:36:55.198Z,2.83
2018-12-07T16:42:58.636Z,1.33
2018-12-07T16:49:02.395Z,1.50
2018-12-07T16:55:06.376Z,1.63
2018-12-07T17:01:10.040Z,1.30
2018-12-07T17:07:13.543Z,1.03
2018-12-07T17:13:17.026Z,1.37
2018-12-07T17:19:20.528Z,1.10
2018-12-07T17:25:24.100Z,1.57
2018-12-07T17:31:27.608Z,1.10
2018-12-07T17:37:31.067Z,1.33
2018-12-07T17:43:34.629Z,1.57
2018-12-07T17:49:38.284Z,1.20
2018-12-07T17:55:41.787Z,0.90
2018-12-07T18:01:45.183Z,2.70
2018-12-07T18:07:48.528Z,2.73
2018-12-07T18:13:51.863Z,1.43
2018-12-07T18:19:55.220Z,2.00
2018-12-07T18:25:58.677Z,1.57
2018-12-07T18:32:02.399Z,1.20
2018-12-07T18:38:05.900Z,4.40
2018-12-07T18:44:09.456Z,1.00
2018-12-07T18:50:13.171Z,2.00
2018-12-07T18:56:16.542Z,1.87
2018-12-07T19:02:20.041Z,1.27
2018-12-07T19:08:23.590Z,1.20
2018-12-07T19:14:27.266Z,1.03
2018-12-07T19:20:30.755Z,1.70
2018-12-07T19:26:34.216Z,1.77
2018-12-07T19:32:37.641Z,1.60
2018-12-07T19:38:40.980Z,1.30
2018-12-07T19:44:44.743Z,1.10
2018-12-07T19:50:48.165Z,0.97
2018-12-07T19:56:51.793Z,1.30
2018-12-07T20:02:55.261Z,1.77
2018-12-07T20:08:58.969Z,2.13
2018-12-07T20:15:02.665Z,1.10
2018-12-07T20:21:06.394Z,1.10
2018-12-07T20:27:09.976Z,1.00
2018-12-07T20:33:13.655Z,1.00
2018-12-07T20:39:17.080Z,1.30
2018-12-07T20:45:20.585Z,1.40
2018-12-07T20:51:26.212Z,1.30
2018-12-07T20:57:29.707Z,0.77
2018-12-07T21:04:13.267Z,0.63
2018-12-07T21:10:55.686Z,1.20
2018-12-07T21:17:07.179Z,0.80
2018-12-07T21:23:11.007Z,0.87
2018-12-07T21:29:14.527Z,0.83
2018-12-07T21:35:17.973Z,0.77
2018-12-07T21:41:21.435Z,0.83
2018-12-07T21:54:31.034Z,1.10
2018-12-07T22:00:34.514Z,1.00
2018-12-07T22:06:38.455Z,1.40
2018-12-07T22:12:41.905Z,1.20
2018-12-07T22:18:45.225Z,1.10
2018-12-07T22:24:48.589Z,1.83
2018-12-07T22:30:52.354Z,1.60
2018-12-07T22:36:55.883Z,1.27
2018-12-07T22:42:59.466Z,1.40
2018-12-07T22:49:02.917Z,2.13
2018-12-07T22:55:06.489Z,1.80
2018-12-07T23:01:09.804Z,1.30
2018-12-07T23:07:13.124Z,1.90
2018-12-07T23:13:16.465Z,1.47
2018-12-07T23:19:19.776Z,1.57
2018-12-07T23:25:23.099Z,1.23
2018-12-07T23:31:26.437Z,1.50
2018-12-07T23:37:29.764Z,1.60
2018-12-07T23:43:33.079Z,1.77
2018-12-07T23:49:36.407Z,1.63
2018-12-07T23:55:39.726Z,1.50
